Stubblefield, Illinois
Current Conditions -  °F | °C
As of 2:35 AM on Tuesday 21 Oct 2014 (Local Time) from K3LF Reporting Station
Clear Clear  
Wind Chill: 44°   Ceiling: Unl
Heat Index: 46°   Visibility: 10mi
Dew Point: 42°   Wind: 5mph
Humidity: 83%   Direction: 320°NW
Pressure: 30.02"   Gusts: NA
Location:  38.895°N, 89.397°W
Report Text: K3LF 210735Z AUTO 32004KT 10SM CLR 08/05 A3002 RMK AO2 T00800053
Loading
Personal Weather Stations






























Interactive Weather Map
Tropical Storm Tracking
New forecast layout! Learn more

10-Day Weather Forecast

Advertisements
Track Severe Weather on mobile